Girona - FEDAC St.Narcís (Gironés)





Hora UTC 20:35
Temperatura 28.1 ºC
Humedad 63.0 %
Presión 1014.0 hPa
Pluja 0.0 mm
Velocidad viento 3.2 km/h
Dirección viento
Radiación solar 0.0 W/m²

Datos diarios 2024-07-24



Hora UTC (invierno +1h; verano +2h)
Temperatura (ºC) Humedad (%) Presión (hPa) Velocidad viento (km/h) Precipitación (mm) Radiación solar (W/m²)
Hora UTC Aire Humedad Presión Vel. Dir. Vel. Max Dir. Intent. máx 5 min. Rad. Sol.
00:05 24.6 71.0 1017.8 1.6 1.6 0.0 0.0
00:15 24.3 71.0 1017.8 1.6 8.0 0.0 0.0
00:25 24.2 71.0 1017.8 0.0 8.0 0.0 0.0
00:35 24.1 72.0 1017.7 0.0 8.0 0.0 0.0
00:45 24.0 72.0 1017.7 0.0 8.0 0.0 0.0
00:55 23.9 73.0 1017.6 1.6 8.0 0.0 0.0
01:05 23.8 74.0 1017.5 1.6 8.0 0.0 0.0
01:35 23.2 74.0 1017.4 1.6 8.0 0.0 0.0
01:45 23.0 76.0 1017.5 1.6 8.0 0.0 0.0
01:55 22.7 77.0 1017.3 0.0 8.0 0.0 0.0
02:05 22.7 77.0 1017.3 0.0 8.0 0.0 0.0
02:25 22.6 77.0 1017.2 0.0 8.0 0.0 0.0
02:35 22.6 77.0 1017.1 1.6 8.0 0.0 0.0
02:45 22.6 77.0 1017.1 0.0 8.0 0.0 0.0
03:05 22.6 77.0 1017.1 0.0 8.0 0.0 0.0
03:15 22.6 77.0 1017.1 1.6 8.0 0.0 0.0
03:35 22.3 78.0 1017.0 1.6 8.0 0.0 0.0
03:45 22.2 78.0 1017.1 1.6 8.0 0.0 0.0
04:15 21.8 80.0 1017.2 1.6 8.0 0.0 0.0
04:25 21.8 80.0 1017.2 1.6 8.0 0.0 0.0
04:35 21.8 80.0 1017.3 0.0 8.0 0.0 0.0
04:45 21.7 80.0 1017.3 1.6 8.0 0.0 5.0
04:55 21.4 81.0 1017.4 3.2 8.0 0.0 11.0
05:05 21.3 81.0 1017.4 1.6 8.0 0.0 18.0
05:25 21.5 81.0 1017.3 0.0 8.0 0.0 28.0
05:35 21.6 81.0 1017.4 1.6 8.0 0.0 33.0
05:45 21.7 81.0 1017.4 1.6 8.0 0.0 35.0
05:55 21.7 80.0 1017.4 1.6 8.0 0.0 120.0
06:05 21.7 80.0 1017.3 1.6 8.0 0.0 135.0
06:25 22.5 79.0 1017.5 0.0 8.0 0.0 209.0
06:35 22.7 78.0 1017.4 0.0 8.0 0.0 221.0
06:45 23.9 75.0 1017.4 0.0 8.0 0.0 265.0
06:55 24.7 71.0 1017.3 0.0 8.0 0.0 292.0
07:05 25.1 70.0 1017.3 0.0 8.0 0.0 318.0
07:15 25.3 69.0 1017.3 1.6 8.0 0.0 332.0
07:25 25.6 67.0 1017.3 1.6 8.0 0.0 360.0
07:35 26.8 64.0 1017.2 0.0 8.0 0.0 399.0
07:45 27.2 62.0 1017.2 1.6 8.0 0.0 427.0
07:55 27.4 62.0 1017.1 0.0 8.0 0.0 455.0
08:05 27.8 61.0 1017.1 1.6 8.0 0.0 478.0
08:15 27.9 61.0 1017.0 1.6 8.0 0.0 504.0
08:25 28.1 61.0 1016.9 3.2 8.0 0.0 527.0
08:35 28.4 60.0 1016.9 3.2 11.3 0.0 554.0
08:45 28.7 60.0 1016.7 3.2 11.3 0.0 580.0
08:55 29.1 58.0 1016.8 3.2 11.3 0.0 599.0
09:05 29.2 57.0 1016.6 4.8 14.5 0.0 622.0
09:15 29.6 54.0 1016.6 4.8 17.7 0.0 645.0
09:25 29.8 54.0 1016.5 6.4 17.7 0.0 666.0
09:35 30.1 53.0 1016.5 6.4 17.7 0.0 682.0
09:45 30.2 53.0 1016.4 4.8 17.7 0.0 700.0
09:55 30.3 51.0 1016.3 6.4 17.7 0.0 717.0
10:05 30.6 51.0 1016.2 4.8 17.7 0.0 735.0
10:15 30.8 51.0 1016.0 6.4 17.7 0.0 745.0
10:25 31.1 50.0 1016.1 6.4 17.7 0.0 759.0
10:35 31.4 49.0 1015.9 6.4 17.7 0.0 773.0
10:45 31.4 49.0 1015.8 8.0 17.7 0.0 784.0
10:55 31.6 49.0 1015.7 8.0 19.3 0.0 793.0
11:05 31.9 48.0 1015.7 6.4 19.3 0.0 802.0
11:15 31.8 49.0 1015.6 9.7 20.9 0.0 809.0
11:25 31.8 48.0 1015.6 6.4 20.9 0.0 812.0
11:35 32.1 47.0 1015.5 8.0 20.9 0.0 817.0
11:45 32.2 47.0 1015.5 9.7 22.5 0.0 823.0
11:55 32.0 49.0 1015.3 9.7 25.7 0.0 819.0
12:05 32.2 48.0 1015.2 8.0 25.7 0.0 821.0
12:15 32.3 48.0 1015.1 8.0 25.7 0.0 816.0
12:25 32.1 49.0 1015.1 9.7 25.7 0.0 814.0
12:35 32.5 47.0 1015.0 6.4 25.7 0.0 810.0
12:45 32.5 48.0 1015.1 9.7 25.7 0.0 802.0
12:55 32.3 49.0 1015.0 8.0 25.7 0.0 793.0
13:05 32.2 48.0 1014.8 9.7 25.7 0.0 793.0
13:15 32.1 48.0 1014.8 9.7 25.7 0.0 782.0
13:25 32.2 47.0 1014.8 11.3 25.7 0.0 770.0
13:35 32.2 46.0 1014.8 9.7 25.7 0.0 761.0
13:45 32.6 45.0 1014.6 8.0 25.7 0.0 745.0
13:55 32.2 44.0 1014.6 11.3 25.7 0.0 729.0
14:05 32.7 44.0 1014.6 9.7 25.7 0.0 715.0
14:15 32.3 44.0 1014.5 11.3 25.7 0.0 694.0
14:25 32.3 43.0 1014.3 9.7 25.7 0.0 677.0
14:35 32.3 43.0 1014.2 11.3 27.4 0.0 656.0
14:45 32.6 43.0 1014.1 9.7 27.4 0.0 629.0
14:55 32.4 43.0 1014.1 9.7 27.4 0.0 612.0
15:05 32.2 47.0 1014.0 11.3 27.4 0.0 587.0
15:15 31.9 48.0 1014.1 11.3 27.4 0.0 566.0
15:25 31.9 50.0 1013.9 8.0 27.4 0.0 538.0
15:35 31.9 50.0 1013.8 9.7 27.4 0.0 513.0
15:45 31.7 51.0 1013.8 9.7 27.4 0.0 501.0
15:55 31.7 51.0 1013.8 11.3 27.4 0.0 489.0
16:05 31.6 52.0 1013.7 8.0 27.4 0.0 471.0
16:15 31.7 53.0 1013.5 8.0 27.4 0.0 475.0
16:25 31.9 51.0 1013.4 6.4 27.4 0.0 455.0
16:35 31.7 52.0 1013.4 8.0 27.4 0.0 443.0
16:45 31.5 52.0 1013.3 8.0 27.4 0.0 388.0
16:55 31.5 51.0 1013.4 6.4 27.4 0.0 348.0
17:05 31.5 51.0 1013.3 4.8 27.4 0.0 262.0
17:15 31.3 51.0 1013.4 6.4 27.4 0.0 292.0
17:25 31.4 51.0 1013.3 4.8 27.4 0.0 241.0
17:35 31.2 52.0 1013.3 6.4 27.4 0.0 97.0
17:45 31.2 53.0 1013.3 4.8 27.4 0.0 123.0
17:55 31.1 52.0 1013.2 4.8 27.4 0.0 139.0
18:05 31.1 52.0 1013.3 3.2 27.4 0.0 116.0
18:15 30.8 53.0 1013.4 4.8 27.4 0.0 86.0
18:25 30.7 54.0 1013.4 4.8 27.4 0.0 67.0
18:35 30.3 54.0 1013.5 6.4 27.4 0.0 51.0
18:45 30.1 54.0 1013.6 4.8 27.4 0.0 35.0
18:55 29.9 56.0 1013.6 4.8 27.4 0.0 25.0
19:05 29.6 57.0 1013.7 4.8 27.4 0.0 14.0
19:15 29.4 57.0 1013.7 4.8 27.4 0.0 5.0
19:25 29.3 58.0 1013.8 3.2 27.4 0.0 0.0
19:35 28.9 59.0 1013.8 4.8 27.4 0.0 0.0
19:45 28.8 60.0 1013.8 3.2 27.4 0.0 0.0
19:55 28.6 61.0 1014.0 3.2 27.4 0.0 0.0
20:05 28.6 61.0 1014.0 1.6 27.4 0.0 0.0
20:15 28.3 62.0 1014.0 3.2 27.4 0.0 0.0
20:25 28.2 62.0 1014.0 3.2 27.4 0.0 0.0
20:35 28.1 63.0 1014.0 3.2 27.4 0.0 0.0
Máxima 32.7 81.0 1017.8 11.3 27.4 0.0 823.0
Mínima 20 43.0 1013.2
Total 0.0